Wichita Mid Continent Airport
KICT : now visible

Airfield :











YOU CAN JOIN US ON...

 
LOGIN :

Register | Disclaimer

   EN    FR    IT 

 









Legend :    VFR   Marginal VFR   IFR   Intensive IFR   Very Intensive IFR
Visi :
Ceiling :
>= 8 km
>= 3000ft
5 to 8 km
1000 to 3000 ft
1500m to 5 km
500 to 1000 ft
800 to 1500m
200 to 500 ft
< 800m
< 200 ft
Symbols :   Thunderstorms  Fog  Heavy snow  Heavy precipitations  Wind > 20 kt






- Airport Elevation : 1333 ft
- IATA code : ICT


KICT - Wichita Mid Continent

CURRENT METAR :
  • 280453Z 05005KT 10SM -RA BKN075 BKN110 19/17 A2990 RMK AO2 RAB0359 SLP114 P0000 T01940167

EXPIRED METARs :
  • 280353Z 02004KT 10SM OVC075 21/16 A2990 RMK AO2 RAB25E41 SLP115 P0000 T02110156
  • 280253Z 02004KT 10SM BKN042 BKN060 OVC070 22/15 A2990 RMK AO2 SLP113 T02170150 51010

TAF KICT
Valid from the 28 at 06:00 until the 29 at 06:00 UTC


280520Z 2806/2906 VRB04KT P6SM VCSH OVC070
FM281200 33006KT P6SM VCSH SCT025 OVC035
FM281600 35011KT P6SM VCSH BKN045
FM281700 36013KT P6SM BKN070
FM290000 02010KT P6SM SCT250
KZKC FIR / North America



MET'MAP, your aeronautical weather chart ! - Copyright ORBIFLY December 2007 - Disclaimer

ORBIFLY MET'MAP TEAM :

Programming & Development : Alexandra Zaïnal
Concept & original design : Baudouin d'Aumeries
Assistance for programming : Marc-Olivier Méhu
Technical & hardware support : Manuel Goepfert

Contact : metmap@orbifly.com




SOURCES & CREDITS :

   NOAA       Earth
Advisory